Accueil
METAR-TAF:

METAR-TAF

Aéroports :

Tanna, Vanuatu

latitude: 19-27-18S, longitude: 169-13-26E, altitude: 6 m

Observation

Le bulletin a été fait il y a 1 heure et 50 minutes, à 09:00 UTC
Vent 1 kt de sud-ouest
Température 21°C
Humidité 83%
Pression 1014 hPa

METAR: NVVW 220900Z AUTO 23001KT //// // NCD 21/18 Q1014 RMK NIL

Heure: 21:50 (10:50 UTC)

Prévision

Le bulletin a été fait il y a 6 heures et 20 minutes, à 04:30 UTC
Prévision valable du 22 à 06 UTC au 23 à 06 UTC
Vent 3 kt de direction variable
Visibilité: 9000 m
Nuages épars à une hauteur de 2000 ft
Ciel couvert à une hauteur de 4000 ft
Nuages fragmentés à une hauteur de 1800 ft
faibles averses de pluie

TAF: NVVW 220430Z 2206/2306 VRB03KT 9999 SCT020 OVC040 INTER 2206/2212 9000 -SHRA BKN018

Observations et prévisions météorologiques de plus de 4000 aéroports (messages METAR et TAF).

Les stations disponibles sont représentées par des disques jaunes et rouges sur la carte.

Passer la souris dessus pour voir le nom de la station.

Cliquer dessus pour voir les observations et prévisions météorologiques.

Pour changer de carte: cliquez sur les boutons verts avec une croix noire pour zoomer, sur le bouton vert avec un tiret pour effectuer un zoom arrière, ou sur les flèches vertes pour les cartes adjacentes.


METAR-TAF: